sensor_id;sensor_type;location;lat;lon;timestamp;P1;durP1;ratioP1;P2;durP2;ratioP2
68192;SDS011;55012;47.562;18.414;2024-03-23T00:54:36;24.20;;;13.13;;
68192;SDS011;55012;47.562;18.414;2024-03-23T00:57:01;22.40;;;12.82;;
68192;SDS011;55012;47.562;18.414;2024-03-23T00:59:27;27.15;;;13.60;;
68192;SDS011;55012;47.562;18.414;2024-03-23T01:01:53;26.38;;;12.77;;
68192;SDS011;55012;47.562;18.414;2024-03-23T01:04:19;24.38;;;13.50;;
68192;SDS011;55012;47.562;18.414;2024-03-23T01:06:45;22.13;;;12.18;;
68192;SDS011;55012;47.562;18.414;2024-03-23T01:09:10;23.55;;;12.60;;
68192;SDS011;55012;47.562;18.414;2024-03-23T01:11:36;22.90;;;12.13;;
68192;SDS011;55012;47.562;18.414;2024-03-23T01:14:02;27.02;;;12.88;;
68192;SDS011;55012;47.562;18.414;2024-03-23T01:16:28;22.73;;;12.02;;
68192;SDS011;55012;47.562;18.414;2024-03-23T01:18:53;24.17;;;11.80;;
68192;SDS011;55012;47.562;18.414;2024-03-23T01:21:18;23.85;;;11.73;;
68192;SDS011;55012;47.562;18.414;2024-03-23T01:23:44;24.00;;;12.50;;
68192;SDS011;55012;47.562;18.414;2024-03-23T01:26:09;22.83;;;11.70;;
68192;SDS011;55012;47.562;18.414;2024-03-23T01:28:35;25.27;;;11.48;;
68192;SDS011;55012;47.562;18.414;2024-03-23T01:31:00;22.08;;;11.85;;
68192;SDS011;55012;47.562;18.414;2024-03-23T01:33:25;22.33;;;11.45;;
68192;SDS011;55012;47.562;18.414;2024-03-23T01:35:51;23.20;;;12.30;;
68192;SDS011;55012;47.562;18.414;2024-03-23T01:38:16;20.15;;;11.35;;
68192;SDS011;55012;47.562;18.414;2024-03-23T01:40:41;22.30;;;11.43;;
68192;SDS011;55012;47.562;18.414;2024-03-23T01:43:07;25.13;;;11.90;;
68192;SDS011;55012;47.562;18.414;2024-03-23T01:45:33;20.88;;;11.35;;
68192;SDS011;55012;47.562;18.414;2024-03-23T01:47:59;21.55;;;11.60;;
68192;SDS011;55012;47.562;18.414;2024-03-23T01:50:25;20.77;;;12.07;;
68192;SDS011;55012;47.562;18.414;2024-03-23T01:52:51;23.52;;;12.35;;
68192;SDS011;55012;47.562;18.414;2024-03-23T01:55:17;25.80;;;12.50;;
68192;SDS011;55012;47.562;18.414;2024-03-23T01:57:42;22.77;;;12.00;;
68192;SDS011;55012;47.562;18.414;2024-03-23T02:00:08;22.40;;;11.68;;
68192;SDS011;55012;47.562;18.414;2024-03-23T02:02:37;22.60;;;12.15;;
68192;SDS011;55012;47.562;18.414;2024-03-23T02:05:09;23.05;;;12.30;;
68192;SDS011;55012;47.562;18.414;2024-03-23T02:07:35;20.92;;;11.52;;
68192;SDS011;55012;47.562;18.414;2024-03-23T02:10:01;21.58;;;12.10;;
68192;SDS011;55012;47.562;18.414;2024-03-23T02:12:27;23.17;;;12.35;;
68192;SDS011;55012;47.562;18.414;2024-03-23T02:14:52;22.88;;;11.65;;
68192;SDS011;55012;47.562;18.414;2024-03-23T02:17:17;22.08;;;12.43;;
68192;SDS011;55012;47.562;18.414;2024-03-23T02:19:43;23.85;;;12.38;;
68192;SDS011;55012;47.562;18.414;2024-03-23T02:22:08;21.80;;;11.85;;
68192;SDS011;55012;47.562;18.414;2024-03-23T02:24:35;23.55;;;12.73;;
68192;SDS011;55012;47.562;18.414;2024-03-23T02:27:01;23.05;;;12.45;;
68192;SDS011;55012;47.562;18.414;2024-03-23T02:29:27;22.23;;;12.55;;
68192;SDS011;55012;47.562;18.414;2024-03-23T02:31:53;26.73;;;12.95;;
68192;SDS011;55012;47.562;18.414;2024-03-23T02:34:18;21.85;;;12.55;;
68192;SDS011;55012;47.562;18.414;2024-03-23T02:36:43;24.30;;;12.55;;
68192;SDS011;55012;47.562;18.414;2024-03-23T02:39:09;22.35;;;12.25;;
68192;SDS011;55012;47.562;18.414;2024-03-23T02:41:34;22.30;;;12.00;;
68192;SDS011;55012;47.562;18.414;2024-03-23T02:43:59;26.02;;;13.32;;
68192;SDS011;55012;47.562;18.414;2024-03-23T02:46:25;25.13;;;13.25;;
68192;SDS011;55012;47.562;18.414;2024-03-23T02:48:50;26.95;;;13.23;;
68192;SDS011;55012;47.562;18.414;2024-03-23T02:51:15;26.30;;;13.55;;
68192;SDS011;55012;47.562;18.414;2024-03-23T02:53:41;27.52;;;14.10;;
68192;SDS011;55012;47.562;18.414;2024-03-23T02:56:06;28.80;;;14.05;;
68192;SDS011;55012;47.562;18.414;2024-03-23T02:58:32;27.67;;;14.15;;
68192;SDS011;55012;47.562;18.414;2024-03-23T03:00:57;30.60;;;16.27;;
68192;SDS011;55012;47.562;18.414;2024-03-23T03:03:23;28.17;;;15.07;;
68192;SDS011;55012;47.562;18.414;2024-03-23T03:05:49;23.92;;;13.80;;
68192;SDS011;55012;47.562;18.414;2024-03-23T03:08:20;23.70;;;12.90;;
68192;SDS011;55012;47.562;18.414;2024-03-23T03:10:45;27.63;;;13.85;;
68192;SDS011;55012;47.562;18.414;2024-03-23T03:13:10;27.48;;;13.77;;
68192;SDS011;55012;47.562;18.414;2024-03-23T03:15:36;26.73;;;13.35;;
68192;SDS011;55012;47.562;18.414;2024-03-23T03:18:01;27.02;;;14.10;;
68192;SDS011;55012;47.562;18.414;2024-03-23T03:20:26;25.40;;;13.45;;
68192;SDS011;55012;47.562;18.414;2024-03-23T03:22:52;27.25;;;13.68;;
68192;SDS011;55012;47.562;18.414;2024-03-23T03:25:18;29.70;;;14.43;;
68192;SDS011;55012;47.562;18.414;2024-03-23T03:27:44;30.13;;;14.98;;
68192;SDS011;55012;47.562;18.414;2024-03-23T03:30:09;29.45;;;14.55;;
68192;SDS011;55012;47.562;18.414;2024-03-23T03:32:35;26.88;;;14.52;;
68192;SDS011;55012;47.562;18.414;2024-03-23T03:35:00;28.08;;;14.35;;
68192;SDS011;55012;47.562;18.414;2024-03-23T03:37:26;27.50;;;14.88;;
68192;SDS011;55012;47.562;18.414;2024-03-23T03:39:51;29.23;;;13.75;;
68192;SDS011;55012;47.562;18.414;2024-03-23T03:42:16;28.80;;;15.20;;
68192;SDS011;55012;47.562;18.414;2024-03-23T03:44:42;26.38;;;14.02;;
68192;SDS011;55012;47.562;18.414;2024-03-23T03:47:07;27.50;;;14.38;;
68192;SDS011;55012;47.562;18.414;2024-03-23T03:49:32;25.70;;;14.35;;
68192;SDS011;55012;47.562;18.414;2024-03-23T03:51:58;27.15;;;13.85;;
68192;SDS011;55012;47.562;18.414;2024-03-23T03:54:23;28.88;;;14.60;;
68192;SDS011;55012;47.562;18.414;2024-03-23T03:56:49;31.42;;;15.90;;
68192;SDS011;55012;47.562;18.414;2024-03-23T03:59:14;28.50;;;14.85;;
68192;SDS011;55012;47.562;18.414;2024-03-23T04:01:40;28.05;;;14.63;;
68192;SDS011;55012;47.562;18.414;2024-03-23T04:04:06;27.60;;;14.80;;
68192;SDS011;55012;47.562;18.414;2024-03-23T04:06:31;32.72;;;16.25;;
68192;SDS011;55012;47.562;18.414;2024-03-23T04:08:58;29.83;;;15.27;;
68192;SDS011;55012;47.562;18.414;2024-03-23T04:11:23;30.38;;;15.48;;
68192;SDS011;55012;47.562;18.414;2024-03-23T04:13:48;28.60;;;14.63;;
68192;SDS011;55012;47.562;18.414;2024-03-23T04:16:24;28.98;;;14.98;;
68192;SDS011;55012;47.562;18.414;2024-03-23T04:18:53;31.33;;;16.15;;
68192;SDS011;55012;47.562;18.414;2024-03-23T04:21:18;27.20;;;15.73;;
68192;SDS011;55012;47.562;18.414;2024-03-23T04:23:44;29.17;;;15.40;;
68192;SDS011;55012;47.562;18.414;2024-03-23T04:26:09;30.70;;;15.60;;
68192;SDS011;55012;47.562;18.414;2024-03-23T04:28:35;31.73;;;15.52;;
68192;SDS011;55012;47.562;18.414;2024-03-23T04:31:03;28.05;;;15.13;;
68192;SDS011;55012;47.562;18.414;2024-03-23T04:33:29;31.15;;;17.00;;
68192;SDS011;55012;47.562;18.414;2024-03-23T04:35:54;30.48;;;15.73;;
68192;SDS011;55012;47.562;18.414;2024-03-23T04:38:20;29.98;;;15.65;;
68192;SDS011;55012;47.562;18.414;2024-03-23T04:40:53;31.98;;;16.05;;
68192;SDS011;55012;47.562;18.414;2024-03-23T04:43:19;31.40;;;15.80;;
68192;SDS011;55012;47.562;18.414;2024-03-23T04:45:44;28.45;;;15.73;;
68192;SDS011;55012;47.562;18.414;2024-03-23T04:48:10;29.60;;;16.23;;
68192;SDS011;55012;47.562;18.414;2024-03-23T04:50:35;31.58;;;16.65;;
68192;SDS011;55012;47.562;18.414;2024-03-23T04:53:00;29.70;;;16.35;;
68192;SDS011;55012;47.562;18.414;2024-03-23T04:55:26;33.95;;;16.83;;
68192;SDS011;55012;47.562;18.414;2024-03-23T04:57:51;29.88;;;16.20;;
68192;SDS011;55012;47.562;18.414;2024-03-23T05:00:16;27.58;;;15.80;;
68192;SDS011;55012;47.562;18.414;2024-03-23T05:02:43;28.67;;;15.63;;
68192;SDS011;55012;47.562;18.414;2024-03-23T05:05:09;33.55;;;16.40;;
68192;SDS011;55012;47.562;18.414;2024-03-23T05:07:34;33.65;;;16.48;;
68192;SDS011;55012;47.562;18.414;2024-03-23T05:09:59;34.35;;;17.27;;
68192;SDS011;55012;47.562;18.414;2024-03-23T05:12:25;35.17;;;18.02;;
68192;SDS011;55012;47.562;18.414;2024-03-23T05:14:50;33.25;;;18.45;;
68192;SDS011;55012;47.562;18.414;2024-03-23T05:17:16;32.53;;;18.50;;
68192;SDS011;55012;47.562;18.414;2024-03-23T05:19:41;31.67;;;17.42;;
68192;SDS011;55012;47.562;18.414;2024-03-23T05:22:07;31.30;;;16.08;;
68192;SDS011;55012;47.562;18.414;2024-03-23T05:24:32;33.92;;;16.75;;
68192;SDS011;55012;47.562;18.414;2024-03-23T05:26:57;32.80;;;16.33;;
68192;SDS011;55012;47.562;18.414;2024-03-23T05:29:24;30.38;;;16.65;;
68192;SDS011;55012;47.562;18.414;2024-03-23T05:31:50;32.08;;;17.10;;
68192;SDS011;55012;47.562;18.414;2024-03-23T05:34:17;30.98;;;17.25;;
68192;SDS011;55012;47.562;18.414;2024-03-23T05:36:42;29.50;;;15.70;;
68192;SDS011;55012;47.562;18.414;2024-03-23T05:39:08;29.42;;;15.60;;
68192;SDS011;55012;47.562;18.414;2024-03-23T05:41:33;26.23;;;14.88;;
68192;SDS011;55012;47.562;18.414;2024-03-23T05:44:01;28.67;;;15.50;;
68192;SDS011;55012;47.562;18.414;2024-03-23T05:46:26;29.98;;;15.88;;
68192;SDS011;55012;47.562;18.414;2024-03-23T05:48:51;28.23;;;15.68;;
68192;SDS011;55012;47.562;18.414;2024-03-23T05:51:17;29.38;;;15.30;;
68192;SDS011;55012;47.562;18.414;2024-03-23T05:53:43;28.40;;;16.50;;
68192;SDS011;55012;47.562;18.414;2024-03-23T05:56:08;28.60;;;15.93;;
68192;SDS011;55012;47.562;18.414;2024-03-23T05:58:34;29.75;;;15.90;;
68192;SDS011;55012;47.562;18.414;2024-03-23T06:01:00;31.05;;;16.08;;
68192;SDS011;55012;47.562;18.414;2024-03-23T06:03:26;27.23;;;15.15;;
68192;SDS011;55012;47.562;18.414;2024-03-23T06:05:52;29.80;;;15.85;;
68192;SDS011;55012;47.562;18.414;2024-03-23T06:08:20;26.27;;;14.70;;
68192;SDS011;55012;47.562;18.414;2024-03-23T06:10:47;26.67;;;14.18;;
68192;SDS011;55012;47.562;18.414;2024-03-23T06:13:13;25.77;;;14.73;;
68192;SDS011;55012;47.562;18.414;2024-03-23T06:15:39;27.23;;;14.85;;
68192;SDS011;55012;47.562;18.414;2024-03-23T06:18:04;25.50;;;14.35;;
68192;SDS011;55012;47.562;18.414;2024-03-23T06:20:30;27.73;;;14.80;;
68192;SDS011;55012;47.562;18.414;2024-03-23T06:22:56;27.08;;;14.40;;
68192;SDS011;55012;47.562;18.414;2024-03-23T06:25:22;29.00;;;15.55;;
68192;SDS011;55012;47.562;18.414;2024-03-23T06:27:47;28.38;;;15.18;;
68192;SDS011;55012;47.562;18.414;2024-03-23T06:30:13;26.13;;;14.63;;
68192;SDS011;55012;47.562;18.414;2024-03-23T06:32:38;28.13;;;15.07;;
68192;SDS011;55012;47.562;18.414;2024-03-23T06:35:03;31.88;;;15.50;;
68192;SDS011;55012;47.562;18.414;2024-03-23T06:37:33;28.27;;;15.13;;
68192;SDS011;55012;47.562;18.414;2024-03-23T06:39:59;26.80;;;14.95;;
68192;SDS011;55012;47.562;18.414;2024-03-23T06:42:24;29.38;;;15.65;;
68192;SDS011;55012;47.562;18.414;2024-03-23T06:44:49;26.75;;;14.85;;
68192;SDS011;55012;47.562;18.414;2024-03-23T06:47:15;26.55;;;14.75;;
68192;SDS011;55012;47.562;18.414;2024-03-23T06:49:40;29.90;;;15.50;;
68192;SDS011;55012;47.562;18.414;2024-03-23T06:52:05;28.40;;;15.63;;
68192;SDS011;55012;47.562;18.414;2024-03-23T06:54:31;27.45;;;15.00;;
68192;SDS011;55012;47.562;18.414;2024-03-23T06:56:56;27.33;;;15.23;;
68192;SDS011;55012;47.562;18.414;2024-03-23T06:59:21;26.80;;;15.15;;
68192;SDS011;55012;47.562;18.414;2024-03-23T07:01:47;27.02;;;14.77;;
68192;SDS011;55012;47.562;18.414;2024-03-23T07:04:12;27.17;;;15.20;;
68192;SDS011;55012;47.562;18.414;2024-03-23T07:06:43;32.40;;;16.48;;
68192;SDS011;55012;47.562;18.414;2024-03-23T07:09:09;26.73;;;15.05;;
68192;SDS011;55012;47.562;18.414;2024-03-23T07:11:35;28.58;;;16.30;;
68192;SDS011;55012;47.562;18.414;2024-03-23T07:14:01;28.05;;;15.05;;
68192;SDS011;55012;47.562;18.414;2024-03-23T07:16:27;28.63;;;15.02;;
68192;SDS011;55012;47.562;18.414;2024-03-23T07:18:53;28.63;;;15.10;;
68192;SDS011;55012;47.562;18.414;2024-03-23T07:21:18;26.02;;;14.25;;
68192;SDS011;55012;47.562;18.414;2024-03-23T07:23:44;25.67;;;15.18;;
68192;SDS011;55012;47.562;18.414;2024-03-23T07:26:12;26.17;;;14.90;;
68192;SDS011;55012;47.562;18.414;2024-03-23T07:28:37;24.75;;;14.82;;
68192;SDS011;55012;47.562;18.414;2024-03-23T07:31:08;27.33;;;13.95;;
68192;SDS011;55012;47.562;18.414;2024-03-23T07:33:36;27.55;;;14.75;;
68192;SDS011;55012;47.562;18.414;2024-03-23T07:36:03;26.10;;;15.10;;
68192;SDS011;55012;47.562;18.414;2024-03-23T07:38:29;25.50;;;14.55;;
68192;SDS011;55012;47.562;18.414;2024-03-23T07:41:07;25.83;;;14.10;;
68192;SDS011;55012;47.562;18.414;2024-03-23T07:43:52;25.45;;;14.68;;
68192;SDS011;55012;47.562;18.414;2024-03-23T07:46:18;27.27;;;14.77;;
68192;SDS011;55012;47.562;18.414;2024-03-23T07:48:46;23.52;;;14.15;;
68192;SDS011;55012;47.562;18.414;2024-03-23T07:53:45;22.35;;;13.90;;
68192;SDS011;55012;47.562;18.414;2024-03-23T07:56:13;23.85;;;14.13;;
68192;SDS011;55012;47.562;18.414;2024-03-23T07:58:43;22.83;;;13.85;;
68192;SDS011;55012;47.562;18.414;2024-03-23T08:01:13;23.58;;;14.05;;
68192;SDS011;55012;47.562;18.414;2024-03-23T08:03:41;24.88;;;14.20;;
68192;SDS011;55012;47.562;18.414;2024-03-23T08:06:10;20.80;;;13.10;;
68192;SDS011;55012;47.562;18.414;2024-03-23T08:08:38;22.92;;;13.27;;
68192;SDS011;55012;47.562;18.414;2024-03-23T08:11:04;22.88;;;12.32;;
68192;SDS011;55012;47.562;18.414;2024-03-23T08:13:29;20.48;;;12.20;;
68192;SDS011;55012;47.562;18.414;2024-03-23T08:15:58;22.88;;;13.13;;
68192;SDS011;55012;47.562;18.414;2024-03-23T08:18:25;20.73;;;13.07;;
68192;SDS011;55012;47.562;18.414;2024-03-23T08:21:00;23.58;;;13.43;;
68192;SDS011;55012;47.562;18.414;2024-03-23T08:23:27;20.63;;;12.38;;
68192;SDS011;55012;47.562;18.414;2024-03-23T08:26:00;23.77;;;13.52;;
68192;SDS011;55012;47.562;18.414;2024-03-23T08:28:26;26.13;;;12.77;;
68192;SDS011;55012;47.562;18.414;2024-03-23T08:30:52;21.33;;;12.98;;
68192;SDS011;55012;47.562;18.414;2024-03-23T08:33:19;20.27;;;12.35;;
68192;SDS011;55012;47.562;18.414;2024-03-23T08:36:00;19.98;;;12.52;;
68192;SDS011;55012;47.562;18.414;2024-03-23T08:38:27;18.40;;;11.70;;
68192;SDS011;55012;47.562;18.414;2024-03-23T08:41:03;18.45;;;11.20;;
68192;SDS011;55012;47.562;18.414;2024-03-23T08:43:36;23.52;;;12.57;;
68192;SDS011;55012;47.562;18.414;2024-03-23T08:48:32;16.65;;;10.20;;
68192;SDS011;55012;47.562;18.414;2024-03-23T08:51:08;15.13;;;10.60;;
68192;SDS011;55012;47.562;18.414;2024-03-23T08:53:37;16.65;;;10.45;;
68192;SDS011;55012;47.562;18.414;2024-03-23T08:56:03;16.75;;;11.85;;
68192;SDS011;55012;47.562;18.414;2024-03-23T08:58:30;16.73;;;10.38;;
68192;SDS011;55012;47.562;18.414;2024-03-23T09:00:57;15.32;;;10.52;;
68192;SDS011;55012;47.562;18.414;2024-03-23T09:03:28;13.30;;;8.45;;
68192;SDS011;55012;47.562;18.414;2024-03-23T09:05:53;15.55;;;8.38;;
68192;SDS011;55012;47.562;18.414;2024-03-23T09:08:20;12.23;;;8.10;;
68192;SDS011;55012;47.562;18.414;2024-03-23T09:10:46;13.82;;;8.00;;
68192;SDS011;55012;47.562;18.414;2024-03-23T09:13:12;13.13;;;8.15;;
68192;SDS011;55012;47.562;18.414;2024-03-23T09:15:45;12.50;;;8.48;;
68192;SDS011;55012;47.562;18.414;2024-03-23T09:18:12;30.08;;;10.43;;
68192;SDS011;55012;47.562;18.414;2024-03-23T09:20:38;18.45;;;11.15;;
68192;SDS011;55012;47.562;18.414;2024-03-23T09:23:04;19.90;;;11.30;;
68192;SDS011;55012;47.562;18.414;2024-03-23T09:25:29;17.58;;;11.50;;
68192;SDS011;55012;47.562;18.414;2024-03-23T09:27:55;19.95;;;11.93;;
68192;SDS011;55012;47.562;18.414;2024-03-23T09:30:20;40.72;;;10.10;;
68192;SDS011;55012;47.562;18.414;2024-03-23T09:32:45;22.10;;;9.68;;
68192;SDS011;55012;47.562;18.414;2024-03-23T09:35:11;18.55;;;11.20;;
68192;SDS011;55012;47.562;18.414;2024-03-23T09:37:37;18.80;;;9.82;;
68192;SDS011;55012;47.562;18.414;2024-03-23T09:40:05;17.55;;;10.32;;
68192;SDS011;55012;47.562;18.414;2024-03-23T09:42:32;16.80;;;10.45;;
68192;SDS011;55012;47.562;18.414;2024-03-23T09:44:58;13.07;;;9.45;;
68192;SDS011;55012;47.562;18.414;2024-03-23T09:47:24;10.80;;;7.80;;
68192;SDS011;55012;47.562;18.414;2024-03-23T09:49:50;9.20;;;6.68;;
68192;SDS011;55012;47.562;18.414;2024-03-23T09:52:16;9.63;;;6.40;;
68192;SDS011;55012;47.562;18.414;2024-03-23T09:54:41;9.80;;;6.30;;
68192;SDS011;55012;47.562;18.414;2024-03-23T09:57:07;8.98;;;5.97;;
68192;SDS011;55012;47.562;18.414;2024-03-23T09:59:33;8.57;;;5.80;;
68192;SDS011;55012;47.562;18.414;2024-03-23T10:01:59;10.15;;;6.53;;
68192;SDS011;55012;47.562;18.414;2024-03-23T10:04:38;8.52;;;5.90;;
68192;SDS011;55012;47.562;18.414;2024-03-23T10:07:14;11.68;;;7.13;;
68192;SDS011;55012;47.562;18.414;2024-03-23T10:09:42;8.90;;;6.03;;
68192;SDS011;55012;47.562;18.414;2024-03-23T10:12:11;9.10;;;6.63;;
68192;SDS011;55012;47.562;18.414;2024-03-23T10:14:38;12.77;;;6.05;;
68192;SDS011;55012;47.562;18.414;2024-03-23T10:17:14;10.75;;;6.78;;
68192;SDS011;55012;47.562;18.414;2024-03-23T10:19:44;10.43;;;6.28;;
68192;SDS011;55012;47.562;18.414;2024-03-23T10:22:10;8.00;;;5.75;;
68192;SDS011;55012;47.562;18.414;2024-03-23T10:24:38;9.07;;;6.20;;
68192;SDS011;55012;47.562;18.414;2024-03-23T10:27:03;9.90;;;6.38;;
68192;SDS011;55012;47.562;18.414;2024-03-23T10:29:28;10.05;;;6.47;;
68192;SDS011;55012;47.562;18.414;2024-03-23T10:31:55;10.32;;;6.65;;
68192;SDS011;55012;47.562;18.414;2024-03-23T10:34:32;9.32;;;6.07;;
68192;SDS011;55012;47.562;18.414;2024-03-23T10:36:58;9.23;;;5.93;;
68192;SDS011;55012;47.562;18.414;2024-03-23T10:39:26;8.95;;;5.97;;
68192;SDS011;55012;47.562;18.414;2024-03-23T10:41:51;18.20;;;6.85;;
68192;SDS011;55012;47.562;18.414;2024-03-23T10:44:18;10.38;;;5.90;;
68192;SDS011;55012;47.562;18.414;2024-03-23T10:46:44;11.50;;;6.00;;
68192;SDS011;55012;47.562;18.414;2024-03-23T10:49:10;10.05;;;6.50;;
68192;SDS011;55012;47.562;18.414;2024-03-23T10:51:36;9.13;;;6.28;;
68192;SDS011;55012;47.562;18.414;2024-03-23T10:54:03;8.88;;;6.05;;
68192;SDS011;55012;47.562;18.414;2024-03-23T10:56:31;8.68;;;5.80;;
68192;SDS011;55012;47.562;18.414;2024-03-23T10:59:01;8.43;;;5.90;;
68192;SDS011;55012;47.562;18.414;2024-03-23T11:01:28;8.45;;;6.18;;
68192;SDS011;55012;47.562;18.414;2024-03-23T11:03:53;13.60;;;6.35;;
68192;SDS011;55012;47.562;18.414;2024-03-23T11:06:38;10.38;;;6.47;;
68192;SDS011;55012;47.562;18.414;2024-03-23T11:09:37;13.43;;;7.95;;
68192;SDS011;55012;47.562;18.414;2024-03-23T11:15:01;9.43;;;6.10;;
68192;SDS011;55012;47.562;18.414;2024-03-23T11:17:28;9.00;;;5.93;;
68192;SDS011;55012;47.562;18.414;2024-03-23T11:20:00;26.17;;;6.65;;
68192;SDS011;55012;47.562;18.414;2024-03-23T11:25:02;11.15;;;5.60;;
68192;SDS011;55012;47.562;18.414;2024-03-23T11:27:28;15.07;;;10.15;;
68192;SDS011;55012;47.562;18.414;2024-03-23T11:29:53;14.27;;;9.43;;
68192;SDS011;55012;47.562;18.414;2024-03-23T11:32:19;20.58;;;12.90;;
68192;SDS011;55012;47.562;18.414;2024-03-23T11:34:44;13.55;;;10.05;;
68192;SDS011;55012;47.562;18.414;2024-03-23T11:37:09;13.05;;;8.27;;
68192;SDS011;55012;47.562;18.414;2024-03-23T11:39:35;9.70;;;6.68;;
68192;SDS011;55012;47.562;18.414;2024-03-23T11:42:00;8.38;;;6.07;;
68192;SDS011;55012;47.562;18.414;2024-03-23T11:44:26;11.43;;;6.95;;
68192;SDS011;55012;47.562;18.414;2024-03-23T11:46:52;9.70;;;6.68;;
68192;SDS011;55012;47.562;18.414;2024-03-23T11:51:48;9.20;;;7.07;;
68192;SDS011;55012;47.562;18.414;2024-03-23T11:54:14;11.63;;;7.10;;
68192;SDS011;55012;47.562;18.414;2024-03-23T11:56:40;9.25;;;6.03;;
68192;SDS011;55012;47.562;18.414;2024-03-23T11:59:08;8.88;;;5.60;;
68192;SDS011;55012;47.562;18.414;2024-03-23T12:01:33;9.15;;;5.93;;
68192;SDS011;55012;47.562;18.414;2024-03-23T12:03:59;8.43;;;5.47;;
68192;SDS011;55012;47.562;18.414;2024-03-23T12:06:24;10.02;;;5.78;;
68192;SDS011;55012;47.562;18.414;2024-03-23T12:08:50;8.32;;;5.68;;
68192;SDS011;55012;47.562;18.414;2024-03-23T12:11:16;9.63;;;6.32;;
68192;SDS011;55012;47.562;18.414;2024-03-23T12:13:43;9.73;;;6.05;;
68192;SDS011;55012;47.562;18.414;2024-03-23T12:16:17;8.73;;;5.85;;
68192;SDS011;55012;47.562;18.414;2024-03-23T12:18:45;10.85;;;7.05;;
68192;SDS011;55012;47.562;18.414;2024-03-23T12:21:12;9.57;;;5.80;;
68192;SDS011;55012;47.562;18.414;2024-03-23T12:23:41;9.45;;;6.05;;
68192;SDS011;55012;47.562;18.414;2024-03-23T12:26:13;10.98;;;6.53;;
68192;SDS011;55012;47.562;18.414;2024-03-23T12:28:39;7.60;;;5.85;;
68192;SDS011;55012;47.562;18.414;2024-03-23T12:31:04;11.55;;;6.43;;
68192;SDS011;55012;47.562;18.414;2024-03-23T12:33:30;11.40;;;6.95;;
68192;SDS011;55012;47.562;18.414;2024-03-23T12:35:55;8.02;;;5.85;;
68192;SDS011;55012;47.562;18.414;2024-03-23T12:38:21;10.77;;;6.68;;
68192;SDS011;55012;47.562;18.414;2024-03-23T12:40:46;8.35;;;5.65;;
68192;SDS011;55012;47.562;18.414;2024-03-23T12:43:15;8.98;;;6.50;;
68192;SDS011;55012;47.562;18.414;2024-03-23T12:45:41;8.73;;;6.00;;
68192;SDS011;55012;47.562;18.414;2024-03-23T12:48:11;9.18;;;6.25;;
68192;SDS011;55012;47.562;18.414;2024-03-23T12:50:36;8.25;;;5.70;;
68192;SDS011;55012;47.562;18.414;2024-03-23T12:53:01;8.82;;;5.15;;
68192;SDS011;55012;47.562;18.414;2024-03-23T12:55:27;13.02;;;5.93;;
68192;SDS011;55012;47.562;18.414;2024-03-23T12:57:52;11.18;;;5.95;;
68192;SDS011;55012;47.562;18.414;2024-03-23T13:00:18;11.50;;;5.13;;
68192;SDS011;55012;47.562;18.414;2024-03-23T13:02:43;7.50;;;4.82;;
68192;SDS011;55012;47.562;18.414;2024-03-23T13:05:09;8.13;;;4.75;;
68192;SDS011;55012;47.562;18.414;2024-03-23T13:07:34;8.75;;;5.20;;
68192;SDS011;55012;47.562;18.414;2024-03-23T13:10:00;8.85;;;5.43;;
68192;SDS011;55012;47.562;18.414;2024-03-23T13:12:26;8.38;;;5.20;;
68192;SDS011;55012;47.562;18.414;2024-03-23T13:14:51;7.53;;;4.63;;
68192;SDS011;55012;47.562;18.414;2024-03-23T13:17:16;8.25;;;5.00;;
68192;SDS011;55012;47.562;18.414;2024-03-23T13:19:42;8.10;;;5.05;;
68192;SDS011;55012;47.562;18.414;2024-03-23T13:22:07;10.70;;;4.70;;
68192;SDS011;55012;47.562;18.414;2024-03-23T13:24:35;6.68;;;4.55;;
68192;SDS011;55012;47.562;18.414;2024-03-23T13:27:01;8.70;;;4.70;;
68192;SDS011;55012;47.562;18.414;2024-03-23T13:29:26;9.18;;;4.90;;
68192;SDS011;55012;47.562;18.414;2024-03-23T13:31:52;8.68;;;4.50;;
68192;SDS011;55012;47.562;18.414;2024-03-23T13:34:18;8.60;;;5.03;;
68192;SDS011;55012;47.562;18.414;2024-03-23T13:36:44;11.07;;;5.20;;
68192;SDS011;55012;47.562;18.414;2024-03-23T13:39:10;5.35;;;4.00;;
68192;SDS011;55012;47.562;18.414;2024-03-23T13:41:39;6.82;;;4.22;;
68192;SDS011;55012;47.562;18.414;2024-03-23T13:44:09;6.60;;;5.03;;
68192;SDS011;55012;47.562;18.414;2024-03-23T13:46:36;7.40;;;4.57;;
68192;SDS011;55012;47.562;18.414;2024-03-23T13:49:02;5.70;;;4.10;;
68192;SDS011;55012;47.562;18.414;2024-03-23T13:51:28;7.03;;;4.80;;
68192;SDS011;55012;47.562;18.414;2024-03-23T13:53:54;6.45;;;4.45;;
68192;SDS011;55012;47.562;18.414;2024-03-23T13:56:21;6.90;;;4.78;;
68192;SDS011;55012;47.562;18.414;2024-03-23T13:58:46;7.47;;;4.57;;
68192;SDS011;55012;47.562;18.414;2024-03-23T14:01:13;7.68;;;4.80;;
68192;SDS011;55012;47.562;18.414;2024-03-23T14:03:39;8.60;;;4.50;;
68192;SDS011;55012;47.562;18.414;2024-03-23T14:06:05;8.30;;;4.75;;
68192;SDS011;55012;47.562;18.414;2024-03-23T14:08:32;7.18;;;4.30;;
68192;SDS011;55012;47.562;18.414;2024-03-23T14:10:59;7.32;;;4.07;;
68192;SDS011;55012;47.562;18.414;2024-03-23T14:13:24;7.45;;;4.70;;
68192;SDS011;55012;47.562;18.414;2024-03-23T14:15:56;6.32;;;4.30;;
68192;SDS011;55012;47.562;18.414;2024-03-23T14:18:21;7.72;;;4.75;;
68192;SDS011;55012;47.562;18.414;2024-03-23T14:20:51;8.18;;;4.70;;
68192;SDS011;55012;47.562;18.414;2024-03-23T14:23:17;9.13;;;4.65;;
68192;SDS011;55012;47.562;18.414;2024-03-23T14:25:42;6.57;;;4.13;;
68192;SDS011;55012;47.562;18.414;2024-03-23T14:28:07;7.57;;;4.88;;
68192;SDS011;55012;47.562;18.414;2024-03-23T14:30:39;8.20;;;4.65;;
68192;SDS011;55012;47.562;18.414;2024-03-23T14:33:07;7.95;;;4.68;;
68192;SDS011;55012;47.562;18.414;2024-03-23T14:35:33;7.13;;;4.10;;
68192;SDS011;55012;47.562;18.414;2024-03-23T14:37:59;8.27;;;4.70;;
68192;SDS011;55012;47.562;18.414;2024-03-23T14:40:24;6.07;;;4.10;;
68192;SDS011;55012;47.562;18.414;2024-03-23T14:42:53;7.55;;;4.22;;
68192;SDS011;55012;47.562;18.414;2024-03-23T14:45:20;6.45;;;4.13;;
68192;SDS011;55012;47.562;18.414;2024-03-23T14:47:46;6.35;;;4.05;;
68192;SDS011;55012;47.562;18.414;2024-03-23T14:50:11;5.72;;;4.00;;
68192;SDS011;55012;47.562;18.414;2024-03-23T14:52:40;7.80;;;4.07;;
68192;SDS011;55012;47.562;18.414;2024-03-23T14:55:06;5.20;;;3.90;;
68192;SDS011;55012;47.562;18.414;2024-03-23T14:57:33;6.22;;;4.40;;
68192;SDS011;55012;47.562;18.414;2024-03-23T14:59:59;5.70;;;4.05;;
68192;SDS011;55012;47.562;18.414;2024-03-23T15:02:25;5.43;;;3.92;;
68192;SDS011;55012;47.562;18.414;2024-03-23T15:04:52;9.65;;;4.18;;
68192;SDS011;55012;47.562;18.414;2024-03-23T15:07:19;5.40;;;3.88;;
68192;SDS011;55012;47.562;18.414;2024-03-23T15:09:44;5.45;;;3.90;;
68192;SDS011;55012;47.562;18.414;2024-03-23T15:12:10;6.00;;;4.20;;
68192;SDS011;55012;47.562;18.414;2024-03-23T15:14:35;5.72;;;3.70;;
68192;SDS011;55012;47.562;18.414;2024-03-23T15:17:01;7.30;;;4.00;;
68192;SDS011;55012;47.562;18.414;2024-03-23T15:19:29;5.75;;;4.13;;
68192;SDS011;55012;47.562;18.414;2024-03-23T15:21:55;9.45;;;4.00;;